Time;durP1;ratioP1;P1;durP2;ratioP2;P2;SDS_P1;SDS_P2;PMS_P1;PMS_P2;Temp;Humidity;BMP_temperature;BMP_pressure;BME280_temperature;BME280_humidity;BME280_pressure;Samples;Min_cycle;Max_cycle;Signal;HPM_P1;HPM_P2
2023/04/23 00:00:12;;;;;;;9.77;6.30;;;;;;;14.98;73.38;99022.97;5094074;28;20220;-92
2023/04/23 00:02:43;;;;;;;11.43;6.47;;;;;;;14.91;73.50;99026.97;5093093;28;20210;-91
2023/04/23 00:05:11;;;;;;;11.07;6.43;;;;;;;14.89;73.12;99020.97;5094096;28;20173;-91
2023/04/23 00:07:40;;;;;;;10.97;6.47;;;;;;;14.91;72.98;99018.25;5093343;28;20250;-92
2023/04/23 00:10:07;;;;;;;12.30;6.73;;;;;;;14.91;72.78;99029.59;5093768;28;20175;-91
2023/04/23 00:12:33;;;;;;;9.43;5.80;;;;;;;14.83;72.62;99026.72;5093738;28;20555;-91
2023/04/23 00:14:59;;;;;;;11.07;7.00;;;;;;;14.73;71.96;99030.94;5093053;28;20241;-91
2023/04/23 00:17:28;;;;;;;13.33;6.83;;;;;;;14.64;72.40;99028.97;5094020;28;20202;-92
2023/04/23 00:19:53;;;;;;;16.13;6.40;;;;;;;14.64;71.95;99023.69;5092962;28;20184;-91
2023/04/23 00:22:19;;;;;;;11.83;6.97;;;;;;;14.50;72.05;99023.78;5093774;28;20200;-91
2023/04/23 00:24:45;;;;;;;10.70;6.53;;;;;;;14.41;72.72;99032.38;5093802;28;20545;-91
2023/04/23 00:27:11;;;;;;;8.63;5.07;;;;;;;14.35;72.63;99036.28;5093839;28;20196;-91
2023/04/23 00:29:36;;;;;;;8.47;5.10;;;;;;;14.31;73.11;99036.56;5092713;28;20176;-91
2023/04/23 00:32:02;;;;;;;10.53;5.87;;;;;;;14.25;72.91;99029.06;5093810;28;20174;-91
2023/04/23 00:34:28;;;;;;;7.00;4.47;;;;;;;14.19;72.89;99030.34;5093303;28;20625;-91
2023/04/23 00:36:59;;;;;;;8.63;5.37;;;;;;;14.23;73.60;99031.78;5093620;28;20609;-91
2023/04/23 00:39:24;;;;;;;10.13;4.87;;;;;;;14.25;72.65;99029.06;5093729;28;20179;-91
2023/04/23 00:41:53;;;;;;;8.67;5.00;;;;;;;14.18;72.36;99030.44;5092402;28;20227;-91
2023/04/23 00:44:18;;;;;;;8.57;4.37;;;;;;;14.18;72.54;99028.63;5093460;28;20205;-91
2023/04/23 00:46:45;;;;;;;10.70;5.20;;;;;;;14.21;72.26;99031.06;5093439;28;20180;-90
2023/04/23 00:49:12;;;;;;;9.97;5.63;;;;;;;14.27;71.95;99027.16;5092377;28;20180;-90
2023/04/23 00:51:40;;;;;;;10.10;5.40;;;;;;;14.32;71.61;99035.63;5093246;28;20241;-90
2023/04/23 00:54:06;;;;;;;12.67;6.07;;;;;;;14.26;71.18;99038.66;5092724;28;20209;-90
2023/04/23 00:56:32;;;;;;;7.57;4.07;;;;;;;14.21;71.20;99032.84;5092181;28;20179;-90
2023/04/23 00:58:58;;;;;;;13.03;6.23;;;;;;;14.22;70.50;99042.47;5093379;28;20449;-91
2023/04/23 01:01:27;;;;;;;10.47;5.73;;;;;;;14.18;70.64;99045.31;5092826;28;20204;-90
2023/04/23 01:03:58;;;;;;;9.17;4.37;;;;;;;14.15;70.40;99039.38;5092818;28;20601;-90
2023/04/23 01:06:27;;;;;;;10.30;4.67;;;;;;;14.13;70.17;99042.13;5093245;28;20161;-90
2023/04/23 01:08:56;;;;;;;10.13;3.60;;;;;;;14.12;70.34;99039.63;5092987;28;20184;-90
2023/04/23 01:11:21;;;;;;;9.83;4.70;;;;;;;14.14;69.85;99043.84;5093097;28;20226;-90
2023/04/23 01:13:47;;;;;;;10.63;3.80;;;;;;;14.12;69.72;99044.91;5092189;28;20172;-91
2023/04/23 01:16:12;;;;;;;5.37;3.30;;;;;;;14.12;69.66;99044.91;5092522;28;20212;-90
2023/04/23 01:18:39;;;;;;;6.90;3.67;;;;;;;14.16;69.44;99041.94;5093135;28;20191;-91
2023/04/23 01:21:06;;;;;;;8.10;4.27;;;;;;;14.10;68.95;99041.50;5092876;28;20169;-93
2023/04/23 01:23:31;;;;;;;5.13;3.03;;;;;;;14.13;68.90;99039.50;5095167;28;20179;-92
2023/04/23 01:25:57;;;;;;;5.10;3.10;;;;;;;14.12;68.84;99034.34;5096327;28;20213;-92
2023/04/23 01:28:23;;;;;;;7.10;3.20;;;;;;;14.09;68.30;99043.31;5096360;28;20564;-92
2023/04/23 01:30:49;;;;;;;5.40;3.10;;;;;;;14.02;68.18;99039.38;5096370;28;20240;-92
2023/04/23 01:33:15;;;;;;;5.93;3.10;;;;;;;13.90;68.17;99036.75;5097155;28;20184;-92
2023/04/23 01:35:42;;;;;;;10.20;2.50;;;;;;;13.89;68.38;99035.03;5097199;28;20517;-91
2023/04/23 01:38:10;;;;;;;8.97;3.67;;;;;;;13.90;67.78;99040.22;5130227;27;20226;-92
2023/04/23 01:40:36;;;;;;;5.17;2.83;;;;;;;13.87;68.19;99048.34;5097452;28;20179;-92
2023/04/23 01:43:03;;;;;;;7.87;3.47;;;;;;;13.86;68.23;99046.63;5096861;28;20695;-91
2023/04/23 01:45:30;;;;;;;6.97;3.27;;;;;;;13.89;68.11;99048.22;5096020;28;20180;-92
2023/04/23 01:47:55;;;;;;;9.00;3.50;;;;;;;13.82;68.21;99049.59;5096976;28;20179;-91
2023/04/23 01:50:23;;;;;;;9.23;3.30;;;;;;;13.73;68.23;99053.66;5095981;28;20188;-91
2023/04/23 01:52:49;;;;;;;10.27;3.63;;;;;;;13.64;68.12;99049.03;5096694;28;20167;-91
2023/04/23 01:55:18;;;;;;;6.77;2.77;;;;;;;13.70;68.03;99051.28;5096650;28;20245;-92
2023/04/23 01:57:45;;;;;;;8.97;3.03;;;;;;;13.62;68.07;99050.94;5096606;28;20191;-91
2023/04/23 02:00:12;;;;;;;7.10;2.93;;;;;;;13.53;68.52;99060.28;5096524;28;20262;-92
2023/04/23 02:02:39;;;;;;;6.70;3.13;;;;;;;13.55;68.42;99060.16;5096308;28;20212;-91
2023/04/23 02:05:10;;;;;;;8.63;3.20;;;;;;;13.54;68.38;99055.84;5095607;28;20196;-91
2023/04/23 02:07:36;;;;;;;5.73;3.23;;;;;;;13.57;67.95;99058.28;5096573;28;20179;-90
2023/04/23 02:10:02;;;;;;;6.03;3.17;;;;;;;13.57;67.55;99058.28;5096334;28;20176;-90
2023/04/23 02:12:27;;;;;;;8.07;3.20;;;;;;;13.59;67.36;99060.81;5095281;28;20172;-90
2023/04/23 02:14:53;;;;;;;8.23;3.03;;;;;;;13.56;67.62;99061.84;5095632;28;20177;-92
2023/04/23 02:17:21;;;;;;;5.90;2.67;;;;;;;13.46;67.95;99061.63;5096133;28;20640;-90
2023/04/23 02:19:48;;;;;;;9.40;3.30;;;;;;;13.45;68.36;99061.72;5096081;28;20649;-90
2023/04/23 02:22:16;;;;;;;6.40;3.10;;;;;;;13.47;68.37;99072.97;5095739;28;20249;-91
2023/04/23 02:24:43;;;;;;;11.57;3.57;;;;;;;13.47;68.54;99067.72;5096754;28;20249;-91
2023/04/23 02:27:10;;;;;;;5.50;2.83;;;;;;;13.44;68.53;99067.94;5096250;28;20320;-92
2023/04/23 02:29:35;;;;;;;5.63;3.40;;;;;;;13.41;69.10;99066.34;5096594;28;20173;-90
2023/04/23 02:32:03;;;;;;;10.47;4.33;;;;;;;13.42;69.25;99069.81;5095752;28;20182;-90
2023/04/23 02:34:30;;;;;;;5.03;2.40;;;;;;;13.44;69.26;99062.69;5094347;28;20187;-91
2023/04/23 02:36:56;;;;;;;6.77;2.70;;;;;;;13.44;69.11;99068.75;5095820;28;20209;-91
2023/04/23 02:39:21;;;;;;;8.73;3.90;;;;;;;13.41;69.19;99068.97;5094862;28;20644;-90
2023/04/23 02:41:47;;;;;;;4.60;2.63;;;;;;;13.43;69.62;99071.50;5094870;28;20188;-90
2023/04/23 02:44:13;;;;;;;8.80;3.40;;;;;;;13.46;69.64;99068.69;5095668;28;20274;-91
2023/04/23 02:46:39;;;;;;;5.80;3.03;;;;;;;13.50;69.57;99068.38;5095674;28;20191;-91
2023/04/23 02:49:05;;;;;;;6.33;3.43;;;;;;;13.48;69.61;99066.78;5095666;28;20172;-92
2023/04/23 02:51:31;;;;;;;7.63;3.40;;;;;;;13.49;69.69;99074.56;5095534;28;20225;-91
2023/04/23 02:53:58;;;;;;;5.47;3.10;;;;;;;13.48;69.25;99067.63;5095508;28;20184;-92
2023/04/23 02:56:23;;;;;;;8.40;3.50;;;;;;;13.51;69.40;99071.84;5094684;28;20320;-92
2023/04/23 02:58:49;;;;;;;6.90;3.47;;;;;;;13.50;69.54;99062.25;5095942;28;20624;-92
2023/04/23 03:01:16;;;;;;;9.97;3.80;;;;;;;13.52;69.43;99068.28;5095604;28;20223;-91
2023/04/23 03:03:42;;;;;;;8.73;3.63;;;;;;;13.45;69.18;99069.59;5094410;28;20187;-91
2023/04/23 03:06:08;;;;;;;9.53;4.77;;;;;;;13.44;69.45;99075.84;5095425;28;20247;-91
2023/04/23 03:08:34;;;;;;;9.33;4.03;;;;;;;13.45;69.47;99074.88;5095304;28;20621;-92
2023/04/23 03:10:59;;;;;;;8.43;3.50;;;;;;;13.47;69.65;99088.78;5095683;28;20179;-92
2023/04/23 03:13:26;;;;;;;7.33;3.87;;;;;;;13.47;69.47;99078.25;5095657;28;20629;-92
2023/04/23 03:15:55;;;;;;;9.57;3.90;;;;;;;13.47;69.38;99075.63;5095288;28;20168;-92
2023/04/23 03:18:20;;;;;;;5.63;3.67;;;;;;;13.46;69.54;99076.56;5094166;28;20188;-91
2023/04/23 03:20:46;;;;;;;6.80;3.20;;;;;;;13.47;69.72;99084.38;5094944;28;20195;-92
2023/04/23 03:23:13;;;;;;;13.67;3.50;;;;;;;13.46;69.45;99081.84;5094909;28;20257;-92
2023/04/23 03:25:39;;;;;;;7.10;3.57;;;;;;;13.46;69.59;99085.31;5095075;28;20172;-91
2023/04/23 03:28:06;;;;;;;6.73;3.23;;;;;;;13.42;69.57;99082.97;5094061;28;20188;-91
2023/04/23 03:30:32;;;;;;;6.23;3.30;;;;;;;13.37;69.14;99088.53;5094817;28;20251;-91
2023/04/23 03:32:58;;;;;;;9.33;3.93;;;;;;;13.37;69.28;99088.53;5094801;28;20224;-92
2023/04/23 03:35:24;;;;;;;8.07;3.77;;;;;;;13.36;69.16;99091.28;5094738;28;20251;-91
2023/04/23 03:37:50;;;;;;;6.70;3.80;;;;;;;13.36;69.12;99096.56;5094669;28;20255;-91
2023/04/23 03:40:18;;;;;;;7.00;3.60;;;;;;;13.34;69.24;99094.00;5094583;28;20321;-91
2023/04/23 03:42:43;;;;;;;6.77;3.57;;;;;;;13.37;69.16;99092.97;5094861;28;20206;-91
2023/04/23 03:45:10;;;;;;;6.57;3.60;;;;;;;13.28;69.36;99094.41;5093102;28;20176;-91
2023/04/23 03:47:35;;;;;;;7.57;3.97;;;;;;;13.24;69.19;99092.91;5093622;28;20175;-91
2023/04/23 03:50:01;;;;;;;8.23;4.13;;;;;;;13.26;69.48;99093.66;5094736;28;20180;-92
2023/04/23 03:52:26;;;;;;;9.20;4.13;;;;;;;13.30;69.37;99091.66;5094932;28;20194;-91
2023/04/23 03:54:53;;;;;;;11.07;4.87;;;;;;;13.28;69.09;99090.94;5093498;28;20176;-92
2023/04/23 03:57:20;;;;;;;8.20;4.70;;;;;;;13.29;68.87;99097.88;5094295;28;20180;-91
2023/04/23 03:59:45;;;;;;;6.03;3.60;;;;;;;13.30;68.80;99095.16;5094819;28;20264;-91
2023/04/23 04:02:11;;;;;;;8.13;4.50;;;;;;;13.31;68.52;99101.28;5093767;28;20645;-92
2023/04/23 04:04:38;;;;;;;12.80;4.83;;;;;;;13.34;68.50;99101.03;5094274;28;20570;-92
2023/04/23 04:07:04;;;;;;;11.30;5.03;;;;;;;13.37;68.43;99108.75;5094632;28;20186;-91
2023/04/23 04:09:34;;;;;;;6.97;4.43;;;;;;;13.37;68.35;99111.38;5093984;28;20164;-94
2023/04/23 04:12:01;;;;;;;10.70;5.20;;;;;;;13.39;68.25;99104.25;5094300;28;20172;-93
2023/04/23 04:14:28;;;;;;;16.50;5.93;;;;;;;13.45;67.47;99117.00;5094532;28;20655;-92
2023/04/23 04:16:55;;;;;;;21.70;8.40;;;;;;;13.42;67.74;99119.84;5093891;28;20179;-91
2023/04/23 04:19:23;;;;;;;20.93;9.50;;;;;;;13.46;68.37;99123.97;5093137;28;20214;-92
2023/04/23 04:21:52;;;;;;;19.20;9.03;;;;;;;13.63;68.76;99121.06;5093857;28;20200;-91
2023/04/23 04:24:20;;;;;;;29.00;11.97;;;;;;;13.87;68.64;99119.47;5093760;28;20271;-92
2023/04/23 04:26:48;;;;;;;27.07;10.97;;;;;;;14.24;68.91;99124.91;5093064;28;20632;-92
2023/04/23 04:29:14;;;;;;;16.20;7.23;;;;;;;14.71;68.54;99133.94;5094461;28;20164;-91
2023/04/23 04:31:41;;;;;;;13.70;7.13;;;;;;;15.24;67.27;99116.97;5093164;28;20172;-92
2023/04/23 04:34:13;;;;;;;12.00;6.80;;;;;;;15.76;65.62;99118.47;5094396;28;20181;-91
2023/04/23 04:36:40;;;;;;;9.57;5.03;;;;;;;15.99;63.49;99121.09;5094151;28;20167;-92
2023/04/23 04:39:06;;;;;;;10.27;5.50;;;;;;;16.49;62.87;99125.19;5092819;28;20181;-91
2023/04/23 04:41:35;;;;;;;12.50;6.03;;;;;;;17.10;61.05;99125.75;5094180;28;20200;-92
2023/04/23 04:44:01;;;;;;;11.50;6.33;;;;;;;17.71;58.79;99117.19;5106492;28;20246;-92
2023/04/23 04:46:28;;;;;;;13.50;6.30;;;;;;;18.55;56.73;99121.66;5100828;28;20178;-90
2023/04/23 04:48:55;;;;;;;11.63;5.13;;;;;;;19.75;52.10;99117.19;5111030;28;20258;-92
2023/04/23 04:51:22;;;;;;;8.20;4.67;;;;;;;21.00;48.53;99125.00;5096872;28;20236;-92
2023/04/23 04:53:52;;;;;;;15.40;5.93;;;;;;;22.22;44.68;99122.75;5094938;28;20637;-91
2023/04/23 04:56:18;;;;;;;11.43;5.03;;;;;;;23.17;41.30;99120.88;5093032;28;20617;-92
2023/04/23 04:58:48;;;;;;;9.07;3.63;;;;;;;23.98;40.03;99123.81;5093725;28;20182;-91
2023/04/23 05:01:15;;;;;;;9.13;4.97;;;;;;;24.58;38.04;99122.47;5094692;28;20205;-92
2023/04/23 05:03:42;;;;;;;8.13;3.50;;;;;;;25.53;37.60;99118.88;5096493;28;20196;-91
2023/04/23 05:06:09;;;;;;;13.20;3.90;;;;;;;26.41;35.22;99116.63;5098475;28;20650;-90
2023/04/23 05:08:36;;;;;;;8.23;3.00;;;;;;;26.88;33.45;99114.53;5088233;28;20180;-91
2023/04/23 05:11:03;;;;;;;7.57;3.00;;;;;;;26.76;33.60;99129.38;5092682;28;20180;-90
2023/04/23 05:13:30;;;;;;;8.10;3.53;;;;;;;26.42;33.37;99119.13;5092860;28;20267;-91
2023/04/23 05:16:03;;;;;;;9.20;3.70;;;;;;;26.23;34.07;99125.84;5092146;28;20640;-91
2023/04/23 05:18:30;;;;;;;10.23;3.10;;;;;;;25.87;33.75;99131.94;5092485;28;20180;-91
2023/04/23 05:20:56;;;;;;;6.80;3.07;;;;;;;25.56;34.88;99131.97;5094002;28;20615;-92
2023/04/23 05:23:22;;;;;;;8.00;3.67;;;;;;;25.30;34.61;99145.66;5092794;28;20176;-92
2023/04/23 05:25:48;;;;;;;6.33;3.20;;;;;;;25.01;35.49;99142.72;5092034;28;20326;-92
2023/04/23 05:28:14;;;;;;;9.77;4.33;;;;;;;24.87;35.91;99146.09;5091564;28;20168;-92
2023/04/23 05:30:40;;;;;;;7.20;3.50;;;;;;;24.67;36.57;99142.91;5091025;28;20205;-92
2023/04/23 05:33:05;;;;;;;9.93;3.80;;;;;;;24.43;37.76;99143.78;5091547;28;20253;-92
2023/04/23 05:35:31;;;;;;;8.23;3.23;;;;;;;24.16;37.93;99137.94;5091574;28;20172;-91
2023/04/23 05:37:56;;;;;;;5.63;3.07;;;;;;;23.99;38.39;99137.03;5091599;28;20173;-91
2023/04/23 05:40:22;;;;;;;7.87;3.27;;;;;;;23.89;37.96;99140.88;5091692;28;20165;-92
2023/04/23 05:42:48;;;;;;;8.53;3.23;;;;;;;23.90;37.73;99140.69;5092097;28;20257;-89
2023/04/23 05:45:13;;;;;;;8.80;3.20;;;;;;;23.72;37.32;99148.84;5092763;28;20169;-89
2023/04/23 05:47:38;;;;;;;10.27;3.40;;;;;;;23.35;37.66;99153.69;5091886;28;20640;-90
2023/04/23 05:50:05;;;;;;;8.50;3.57;;;;;;;22.91;38.75;99146.78;5091787;28;20182;-89
2023/04/23 05:52:32;;;;;;;9.10;3.83;;;;;;;22.73;39.44;99149.53;5093340;28;20173;-89
2023/04/23 05:54:57;;;;;;;12.57;3.83;;;;;;;22.66;39.98;99142.31;5092108;28;20625;-91
2023/04/23 05:57:23;;;;;;;9.13;4.10;;;;;;;22.81;39.82;99149.59;5092379;28;20272;-91
2023/04/23 05:59:48;;;;;;;10.70;4.67;;;;;;;22.79;40.52;99145.41;5092654;28;20176;-90
2023/04/23 06:02:14;;;;;;;8.77;2.93;;;;;;;22.67;40.96;99150.16;5092501;28;20232;-90
2023/04/23 06:04:40;;;;;;;7.57;2.60;;;;;;;22.71;40.43;99156.03;5091839;28;20259;-90
2023/04/23 06:07:05;;;;;;;13.17;4.70;;;;;;;22.76;41.61;99157.25;5091818;28;20606;-89
2023/04/23 06:09:31;;;;;;;8.80;2.83;;;;;;;23.03;40.98;99153.56;5093546;28;20177;-89
2023/04/23 06:11:56;;;;;;;9.40;3.43;;;;;;;23.59;39.89;99148.47;5095458;28;20195;-91
2023/04/23 06:14:22;;;;;;;5.93;2.60;;;;;;;24.06;38.52;99147.91;5095362;28;20617;-88
2023/04/23 06:16:47;;;;;;;8.43;3.27;;;;;;;24.14;39.07;99147.94;5095276;28;20176;-89
2023/04/23 06:19:13;;;;;;;7.50;2.77;;;;;;;24.09;38.39;99150.28;5095909;28;20628;-88
2023/04/23 06:21:38;;;;;;;7.40;2.27;;;;;;;24.04;37.84;99147.25;5095121;28;20678;-89
2023/04/23 06:24:04;;;;;;;6.10;2.83;;;;;;;23.75;37.98;99156.56;5096115;28;20172;-89
2023/04/23 06:26:30;;;;;;;11.03;3.23;;;;;;;23.16;37.61;99157.50;5095019;28;20613;-89
2023/04/23 06:28:55;;;;;;;5.47;2.40;;;;;;;23.26;38.96;99157.34;5095932;28;20215;-89
2023/04/23 06:31:21;;;;;;;5.10;1.87;;;;;;;23.40;38.51;99156.75;5095200;28;20176;-89
2023/04/23 06:33:46;;;;;;;6.60;2.00;;;;;;;23.48;38.85;99154.13;5095984;28;20535;-89
2023/04/23 06:36:13;;;;;;;7.43;2.13;;;;;;;23.49;38.21;99153.13;5095106;28;20215;-90
2023/04/23 06:38:40;;;;;;;4.90;2.10;;;;;;;23.13;39.22;99163.16;5095401;28;20176;-90
2023/04/23 06:41:05;;;;;;;11.90;4.07;;;;;;;23.18;39.65;99160.00;5095269;28;20658;-90
2023/04/23 06:43:31;;;;;;;14.37;2.87;;;;;;;23.20;37.36;99169.53;5094983;28;20184;-90
2023/04/23 06:45:57;;;;;;;4.77;1.97;;;;;;;23.21;37.48;99168.53;5096446;28;20183;-91
2023/04/23 06:48:22;;;;;;;6.90;2.27;;;;;;;23.12;37.06;99160.63;5094963;28;20589;-89
2023/04/23 06:50:48;;;;;;;6.43;2.10;;;;;;;22.53;37.83;99166.72;5095152;28;20629;-90
2023/04/23 06:53:16;;;;;;;6.00;2.83;;;;;;;22.63;40.49;99168.34;5094949;28;20685;-91
2023/04/23 06:55:44;;;;;;;7.67;2.23;;;;;;;22.81;37.97;99167.44;5094949;28;20176;-90
2023/04/23 06:58:10;;;;;;;6.90;2.53;;;;;;;23.05;38.65;99170.28;5094744;28;20176;-91
2023/04/23 07:01:06;;;;;;;;;;;;;;;;;;;;;
2023/04/23 07:03:32;;;;;;;8.80;2.50;;;;;;;23.12;36.28;99165.97;5096899;28;20594;-91
2023/04/23 07:06:00;;;;;;;5.30;1.83;;;;;;;22.94;39.04;99163.38;5095784;28;20267;-91
2023/04/23 07:08:39;;;;;;;3.87;2.13;;;;;;;23.29;39.41;99167.75;5095689;28;20520;-91
2023/04/23 07:11:04;;;;;;;7.87;2.30;;;;;;;23.41;36.63;99155.78;5095813;28;20169;-90
2023/04/23 07:14:07;;;;;;;;;;;;;;;;;;;;;
2023/04/23 07:20:39;;;;;;;6.37;2.00;;;;;;;23.89;36.28;99164.97;4994159;28;20187;-91
2023/04/23 07:24:25;;;;;;;;;;;;;;;;;;;;;
2023/04/23 07:27:31;;;;;;;8.10;2.23;;;;;;;23.42;38.11;99161.97;5045967;28;20185;-93
2023/04/23 07:50:32;;;;;;;5.33;1.97;;;;;;;23.80;36.10;99170.28;4900486;29;20192;-89
2023/04/23 07:57:14;;;;;;;;;;;;;;;;;;;;;
2023/04/23 08:10:44;;;;;;;3.93;2.10;;;;;;;23.83;38.85;99169.97;4914427;29;20241;-91
2023/04/23 08:34:29;;;;;;;5.13;1.97;;;;;;;23.82;35.45;99156.72;4897176;29;20709;-91
2023/04/23 08:37:41;;;;;;;7.17;1.73;;;;;;;23.63;34.77;99147.16;4970333;28;20275;-90
2023/04/23 08:51:18;;;;;;;8.63;1.80;;;;;;;23.90;36.66;99134.53;4935028;29;20216;-92
2023/04/23 09:26:56;;;;;;;4.27;1.50;;;;;;;24.98;32.48;99117.06;4878326;29;20218;-91
2023/04/23 09:37:17;;;;;;;;;;;;;;;;;;;;;
2023/04/23 09:47:08;;;;;;;6.67;1.73;;;;;;;24.59;33.14;99104.56;4846007;29;20257;-92
2023/04/23 10:08:38;;;;;;;8.77;2.03;;;;;;;24.91;32.93;99091.97;4769143;30;20243;-92
2023/04/23 10:14:49;;;;;;;4.50;1.90;;;;;;;25.13;31.21;99081.50;4736332;30;20279;-89
2023/04/23 10:28:00;;;;;;;5.43;1.77;;;;;;;24.28;32.23;99059.75;4770015;30;20202;-90
2023/04/23 10:34:36;;;;;;;3.47;1.70;;;;;;;25.24;30.73;99046.22;4788881;30;20205;-89
2023/04/23 10:44:23;;;;;;;;;;;;;;;;;;;;;
2023/04/23 10:47:25;;;;;;;;;;;;;;;;;;;;;
2023/04/23 10:50:54;;;;;;;3.63;1.60;;;;;;;26.08;30.77;99032.72;4818761;29;20197;-89
2023/04/23 10:54:13;;;;;;;8.07;1.87;;;;;;;25.92;30.09;99024.81;4798713;29;20193;-89
2023/04/23 10:57:00;;;;;;;8.30;2.23;;;;;;;24.93;31.64;99028.25;4829223;29;20204;-89
2023/04/23 11:00:37;;;;;;;;;;;;;;;;;;;;;
2023/04/23 11:03:31;;;;;;;5.07;1.93;;;;;;;25.18;31.66;99020.09;4930052;29;20218;-89
2023/04/23 11:06:30;;;;;;;7.03;2.30;;;;;;;25.49;30.79;99020.97;4918718;29;20722;-89
2023/04/23 11:13:17;;;;;;;6.17;1.63;;;;;;;25.77;32.36;99011.34;5004627;28;20195;-90
2023/04/23 11:15:51;;;;;;;5.33;1.60;;;;;;;25.67;30.20;99020.66;4984485;28;20198;-89
2023/04/23 11:19:15;;;;;;;6.03;1.67;;;;;;;25.80;31.07;99013.69;4984546;28;20183;-89
2023/04/23 11:25:13;;;;;;;4.10;1.33;;;;;;;26.22;29.50;99005.09;4975052;28;20207;-88
2023/04/23 11:28:15;;;;;;;6.60;1.80;;;;;;;26.32;31.28;99004.81;5010784;28;20689;-89
2023/04/23 11:31:28;;;;;;;2.95;1.58;;;;;;;26.02;28.37;99006.63;5015094;28;20209;-88
2023/04/23 11:34:15;;;;;;;;;;;;;;;;;;;;;
2023/04/23 11:36:52;;;;;;;5.18;2.03;;;;;;;25.61;30.43;99000.72;5015640;28;20159;-89
2023/04/23 11:39:23;;;;;;;7.63;1.80;;;;;;;25.90;28.61;98998.16;4997781;28;20270;-89
2023/04/23 11:41:51;;;;;;;6.65;1.75;;;;;;;25.90;28.87;98990.09;4996699;28;20202;-89
2023/04/23 11:44:20;;;;;;;3.70;2.07;;;;;;;26.00;28.30;98996.03;4994350;28;20190;-89
2023/04/23 11:46:58;;;;;;;5.07;1.63;;;;;;;26.04;29.22;98989.31;4993869;28;20300;-88
2023/04/23 11:49:23;;;;;;;5.97;1.73;;;;;;;26.11;30.42;98992.91;4994676;28;20586;-89
2023/04/23 11:51:49;;;;;;;7.67;1.80;;;;;;;25.97;28.39;98985.66;4994706;28;20186;-88
2023/04/23 11:54:41;;;;;;;7.87;2.10;;;;;;;25.15;28.99;98985.59;4978003;28;20183;-89
2023/04/23 11:57:07;;;;;;;6.87;1.70;;;;;;;24.93;28.75;98984.50;4992826;28;20278;-90
2023/04/23 11:59:33;;;;;;;7.13;1.97;;;;;;;25.04;30.09;98982.28;4977813;28;20214;-88
2023/04/23 12:01:59;;;;;;;4.43;1.57;;;;;;;25.21;29.02;98980.31;5003415;28;20207;-89
2023/04/23 12:04:26;;;;;;;2.37;1.10;;;;;;;25.11;27.45;98976.19;4997190;28;20186;-88
2023/04/23 12:06:53;;;;;;;7.50;1.70;;;;;;;25.07;30.69;98970.38;4997124;28;20183;-88
2023/04/23 12:09:26;;;;;;;5.30;1.90;;;;;;;24.83;30.79;98975.84;5015720;28;20638;-89
2023/04/23 12:11:52;;;;;;;7.03;1.93;;;;;;;24.82;31.06;98971.50;5033365;28;20179;-88
2023/04/23 12:14:22;;;;;;;4.50;1.70;;;;;;;25.40;30.23;98957.56;5016390;28;20553;-88
2023/04/23 12:16:51;;;;;;;2.63;1.30;;;;;;;25.39;30.61;98959.41;5034114;28;20181;-87
2023/04/23 12:19:19;;;;;;;9.37;2.13;;;;;;;25.58;30.33;98952.75;5009345;28;20240;-90
2023/04/23 12:22:14;;;;;;;4.77;1.50;;;;;;;25.55;29.93;98959.31;5013858;28;20199;-88
2023/04/23 12:24:50;;;;;;;3.22;1.48;;;;;;;25.41;29.03;98945.84;5012283;28;20194;-88
2023/04/23 12:27:20;;;;;;;2.90;1.20;;;;;;;25.29;30.16;98949.97;4996848;28;20193;-89
2023/04/23 12:29:50;;;;;;;9.73;1.87;;;;;;;25.49;30.22;98956.53;5013754;28;20202;-88
2023/04/23 12:32:17;;;;;;;4.35;1.42;;;;;;;25.52;29.29;98942.75;5013846;28;20179;-90
2023/04/23 12:34:55;;;;;;;7.27;1.73;;;;;;;24.99;28.08;98941.75;5013812;28;20663;-88
2023/04/23 12:37:25;;;;;;;4.07;1.60;;;;;;;24.46;27.45;98944.31;5014192;28;20175;-89
2023/04/23 12:39:52;;;;;;;2.75;1.50;;;;;;;24.76;29.54;98940.84;5013750;28;20175;-88
2023/04/23 12:42:18;;;;;;;5.13;1.77;;;;;;;24.18;29.29;98945.75;4996240;28;20209;-88
2023/04/23 12:44:43;;;;;;;5.30;1.50;;;;;;;24.82;29.09;98929.44;5025564;28;20178;-88
2023/04/23 12:47:10;;;;;;;4.80;1.52;;;;;;;25.36;29.84;98924.06;5033287;28;20174;-87
2023/04/23 12:49:39;;;;;;;6.35;1.60;;;;;;;25.81;28.31;98921.38;5033827;28;20201;-87
2023/04/23 12:52:05;;;;;;;3.50;1.52;;;;;;;26.22;27.34;98911.91;5015855;28;20182;-89
2023/04/23 12:54:36;;;;;;;5.65;1.30;;;;;;;26.62;28.07;98915.13;5032728;28;20178;-89
2023/04/23 12:57:02;;;;;;;3.63;1.70;;;;;;;26.95;27.07;98912.84;4996265;28;20170;-89
2023/04/23 12:59:28;;;;;;;9.32;1.90;;;;;;;26.75;25.40;98915.28;4999017;28;20695;-89
2023/04/23 13:01:54;;;;;;;5.82;1.60;;;;;;;26.76;29.16;98903.47;5015587;28;20206;-88
2023/04/23 13:04:19;;;;;;;5.55;2.13;;;;;;;26.59;26.49;98912.78;5033112;28;20651;-89
2023/04/23 13:06:45;;;;;;;3.60;1.65;;;;;;;25.26;27.92;98916.25;5015630;28;20344;-89
2023/04/23 13:09:13;;;;;;;6.28;1.83;;;;;;;25.45;28.56;98910.41;5032998;28;20336;-89
2023/04/23 13:11:40;;;;;;;7.28;1.23;;;;;;;25.53;27.06;98910.38;5033567;28;20174;-89
2023/04/23 13:14:06;;;;;;;4.53;1.33;;;;;;;25.71;25.38;98915.41;5033170;28;20209;-89
2023/04/23 13:16:32;;;;;;;3.88;1.20;;;;;;;25.84;26.78;98904.06;5032978;28;20182;-88
2023/04/23 13:18:59;;;;;;;3.38;1.55;;;;;;;26.14;26.17;98898.56;5035596;28;20681;-89
2023/04/23 13:21:24;;;;;;;4.10;1.58;;;;;;;26.40;26.91;98899.91;5019581;28;20204;-88
2023/04/23 13:23:50;;;;;;;5.95;1.10;;;;;;;26.34;25.50;98890.75;5036630;28;20615;-88
2023/04/23 13:26:15;;;;;;;4.18;1.30;;;;;;;26.52;25.07;98879.63;5019712;28;20174;-88
2023/04/23 13:28:41;;;;;;;7.63;2.00;;;;;;;26.96;25.33;98883.06;5036950;28;20642;-89
2023/04/23 13:31:07;;;;;;;5.03;1.52;;;;;;;27.28;24.96;98874.47;5036101;28;20621;-89
2023/04/23 13:33:33;;;;;;;2.55;1.38;;;;;;;26.93;24.85;98880.75;5019461;28;20182;-89
2023/04/23 13:36:00;;;;;;;6.00;1.65;;;;;;;26.51;25.23;98867.19;5037141;28;20629;-89
2023/04/23 13:38:25;;;;;;;6.47;1.38;;;;;;;26.05;25.48;98870.06;5019237;28;20240;-89
2023/04/23 13:40:51;;;;;;;6.63;1.30;;;;;;;26.21;27.62;98866.38;5036725;28;20170;-88
2023/04/23 13:43:17;;;;;;;4.18;1.25;;;;;;;26.58;27.27;98863.56;5036456;28;20210;-89
2023/04/23 13:45:43;;;;;;;5.72;1.35;;;;;;;25.81;26.32;98878.41;5036660;28;20174;-89
2023/04/23 13:48:08;;;;;;;2.90;1.52;;;;;;;26.19;26.17;98868.44;5019201;28;20178;-90
2023/04/23 13:50:34;;;;;;;6.05;1.45;;;;;;;26.36;26.11;98872.59;5036793;28;20171;-89
2023/04/23 13:53:00;;;;;;;3.17;1.42;;;;;;;26.42;25.80;98860.25;5019448;28;20198;-89
2023/04/23 13:55:25;;;;;;;2.60;1.30;;;;;;;26.63;27.08;98858.44;5017653;28;20287;-89
2023/04/23 13:57:56;;;;;;;8.45;1.55;;;;;;;26.65;25.32;98850.22;4999400;28;20207;-88
2023/04/23 14:00:23;;;;;;;6.85;1.42;;;;;;;26.97;26.42;98855.13;4999325;28;20191;-89
2023/04/23 14:02:48;;;;;;;2.97;1.17;;;;;;;27.00;26.08;98854.75;5016384;28;20569;-89
2023/04/23 14:05:14;;;;;;;4.10;1.52;;;;;;;27.06;24.73;98854.00;4999328;28;20175;-89
2023/04/23 14:07:39;;;;;;;2.85;1.20;;;;;;;27.14;26.03;98851.16;4999111;28;20191;-89
2023/04/23 14:10:05;;;;;;;3.30;1.42;;;;;;;27.21;25.94;98851.22;5031104;28;20183;-88
2023/04/23 14:12:31;;;;;;;4.13;1.50;;;;;;;26.94;25.21;98858.19;5018497;28;20240;-89
2023/04/23 14:14:56;;;;;;;2.70;1.33;;;;;;;26.29;25.15;98854.69;5036173;28;20620;-89
2023/04/23 14:17:22;;;;;;;4.63;1.50;;;;;;;26.58;25.75;98849.28;5021036;28;20193;-89
2023/04/23 14:19:47;;;;;;;3.25;1.35;;;;;;;26.86;25.73;98855.63;5016330;28;20171;-89
2023/04/23 14:22:13;;;;;;;4.25;1.60;;;;;;;26.97;25.57;98855.13;5016088;28;20191;-90
2023/04/23 14:24:44;;;;;;;4.47;1.27;;;;;;;27.09;25.03;98848.22;4999069;28;20183;-89
2023/04/23 14:27:10;;;;;;;6.32;1.17;;;;;;;27.30;25.20;98842.84;4998874;28;20535;-89
2023/04/23 14:29:40;;;;;;;4.78;1.20;;;;;;;27.38;25.73;98848.06;4998037;28;20183;-89
2023/04/23 14:32:06;;;;;;;5.90;1.35;;;;;;;27.46;24.43;98844.44;5016185;28;20190;-88
2023/04/23 14:34:34;;;;;;;2.58;1.20;;;;;;;27.64;25.36;98849.34;4999604;28;20178;-87
2023/04/23 14:37:00;;;;;;;2.38;1.30;;;;;;;27.54;24.92;98851.53;5015893;28;20630;-89
2023/04/23 14:39:26;;;;;;;4.88;2.00;;;;;;;27.49;24.48;98846.72;4998618;28;20317;-89
2023/04/23 14:41:51;;;;;;;4.43;1.30;;;;;;;27.30;25.36;98848.22;4995330;28;20543;-89
2023/04/23 14:44:17;;;;;;;6.30;1.73;;;;;;;27.05;24.78;98844.25;5035858;28;20261;-89
2023/04/23 14:46:43;;;;;;;4.20;1.55;;;;;;;27.05;24.68;98846.94;5035337;28;20202;-88